• Join FlightAware (Why Join?)
  • Login
  • US Flag 
08:48PM EDT


 

Airport Tracker/Info


-or-


 

Live Flight TrackerFlight Track Log ✈ N26VW ✈ 20-Jun-2013 ✈ KMIC - KMGY

Flight Track Log - Related Links

Times and Time Zones

All times are in EDT time to prevent confusion due to time zone crossing. See the N26VW flight status page for this flight to view local times or setup timezone preferences in your user account.

Time Position Orientation Groundspeed Altitude Reporting Facility
EDT Latitude Longitude Course Direction KTS MPH feet Rate Location/Type
05:19PM 45.0500 -93.3333 19° North 131 151 1,800  Level Minneapolis TRACON
05:20PM 45.0833 -93.3167 19° North 175 201 3,000 660 Climbing Minneapolis TRACON
05:21PM 45.1281 -93.3056 10° North 189 217 3,000 540 Level Minneapolis Center
05:22PM 45.1367 -93.2319 81° East 190 219 4,000 480 Climbing Minneapolis Center
05:23PM 45.1175 -93.1556 110° East 207 238 4,000  Level Minneapolis Center
05:24PM 45.0922 -93.0803 115° Southeast 211 243 4,000  Level Minneapolis Center
05:25PM 45.0669 -93.0044 115° Southeast 213 245 4,000  Level Minneapolis Center
05:26PM 45.0422 -92.9289 115° Southeast 212 244 4,000  Level Minneapolis Center
05:27PM 45.0097 -92.8436 118° Southeast 205 236 4,000  Level Minneapolis Center
05:28PM 44.9678 -92.7908 138° Southeast 202 232 4,100 720 Climbing Minneapolis Center
05:29PM 44.9292 -92.7422 138° Southeast 188 216 5,600 1,080 Climbing Minneapolis Center
05:30PM 44.8925 -92.6950 138° Southeast 180 207 6,600 900 Climbing Minneapolis Center
05:31PM 44.8461 -92.6347 137° Southeast 189 217 7,700 960 Climbing Minneapolis Center
05:32PM 44.8056 -92.5839 138° Southeast 194 223 8,600 900 Climbing Minneapolis Center
05:33PM 44.7550 -92.5189 138° Southeast 205 236 9,600 780 Climbing Minneapolis Center
05:34PM 44.7103 -92.4617 138° Southeast 218 251 10,300 600 Climbing Minneapolis Center
05:35PM 44.6636 -92.4031 138° Southeast 224 258 10,900 660 Climbing Minneapolis Center
05:36PM 44.6150 -92.3422 138° Southeast 232 267 11,700 540 Climbing Minneapolis Center
05:37PM 44.5647 -92.2817 139° Southeast 237 273 12,100 180 Climbing Minneapolis Center
05:38PM 44.5106 -92.2119 137° Southeast 256 295 12,100 240 Level Minneapolis Center
05:40PM 44.4436 -92.1294 139° Southeast 267 307 12,600 720 Climbing Minneapolis Center
05:41PM 44.3944 -92.0642 136° Southeast 250 288 13,600 960 Climbing Minneapolis Center
05:42PM 44.3433 -92.0019 139° Southeast 245 282 14,600 900 Climbing Minneapolis Center
05:43PM 44.2939 -91.9389 138° Southeast 243 280 15,500 840 Climbing Minneapolis Center
05:44PM 44.2436 -91.8772 139° Southeast 242 278 16,400 960 Climbing Minneapolis Center
05:45PM 44.1836 -91.7994 137° Southeast 245 282 17,600 960 Climbing Minneapolis Center
05:46PM 44.1475 -91.7172 121° Southeast 246 283 18,400 780 Climbing Minneapolis Center
05:47PM 44.1092 -91.6381 124° Southeast 248 285 19,300 840 Climbing Minneapolis Center
05:48PM 44.0700 -91.5594 125° Southeast 248 285 20,200 780 Climbing Minneapolis Center
05:49PM 44.0272 -91.4733 125° Southeast 254 292 21,000 660 Climbing Minneapolis Center
05:50PM 43.9864 -91.3906 124° Southeast 259 298 21,600 540 Climbing Minneapolis Center
05:51PM 43.9433 -91.3042 125° Southeast 269 310 22,200 480 Climbing Minneapolis Center
05:52PM 43.9008 -91.2175 124° Southeast 272 313 22,700 480 Climbing Minneapolis Center
05:53PM 43.8478 -91.1125 125° Southeast 277 319 23,300 480 Climbing Minneapolis Center
05:54PM 43.8042 -91.0253 125° Southeast 278 320 23,800 420 Climbing Minneapolis Center
05:55PM 43.7611 -90.9392 125° Southeast 276 318 24,200 420 Climbing Minneapolis Center
05:56PM 43.7189 -90.8528 124° Southeast 274 315 24,700 360 Climbing Minneapolis Center
05:57PM 43.6658 -90.7503 126° Southeast 276 318 25,000 120 Climbing Minneapolis Center
05:58PM 43.6200 -90.6592 125° Southeast 288 331 25,000 -120 Level Minneapolis Center
05:59PM 43.5919 -90.6064 126° Southeast 289 333 24,900  Descending Chicago Center
06:00PM 43.5453 -90.5133 125° Southeast 295 339 25,000  Climbing Chicago Center
06:01PM 43.4983 -90.4219 125° Southeast 295 339 25,000 -60 Level Chicago Center
06:02PM 43.4508 -90.3319 126° Southeast 294 338 24,900 -60 Descending Chicago Center
06:03PM 43.3981 -90.2292 125° Southeast 292 336 24,900  Level Chicago Center
06:04PM 43.3514 -90.1400 126° Southeast 290 334 25,000  Climbing Chicago Center
06:05PM 43.2975 -90.0358 125° Southeast 287 330 24,900 -60 Descending Chicago Center
06:06PM 43.2528 -89.9472 125° Southeast 284 327 24,900  Level Chicago Center
06:07PM 43.2067 -89.8600 126° Southeast 284 327 24,900  Level Chicago Center
06:08PM 43.1611 -89.7714 125° Southeast 284 327 24,900  Level Chicago Center
06:09PM 43.1147 -89.6856 126° Southeast 281 323 24,900  Level Chicago Center
06:10PM 43.0628 -89.5828 125° Southeast 283 326 24,900  Level Chicago Center
06:11PM 43.0172 -89.4969 126° Southeast 280 322 25,000  Climbing Chicago Center
06:12PM 42.9700 -89.4094 126° Southeast 284 327 25,000 -60 Level Chicago Center
06:13PM 42.9239 -89.3236 126° Southeast 282 325 24,900 -60 Descending Chicago Center
06:14PM 42.8794 -89.2375 125° Southeast 278 320 24,900  Level Chicago Center
06:15PM 42.8256 -89.1375 126° Southeast 280 322 24,900  Level Chicago Center
06:16PM 42.7794 -89.0517 126° Southeast 280 322 24,900  Level Chicago Center
06:17PM 42.7333 -88.9664 126° Southeast 279 321 24,900  Level Chicago Center
06:18PM 42.6878 -88.8817 126° Southeast 279 321 24,900  Level Chicago Center
06:19PM 42.6419 -88.7975 126° Southeast 278 320 24,900  Level Chicago Center
06:21PM 42.5894 -88.6997 126° Southeast 276 318 24,900  Level Chicago Center
06:22PM 42.5447 -88.6153 126° Southeast 276 318 24,900  Level Chicago Center
06:23PM 42.4989 -88.5344 128° Southeast 272 313 24,900  Level Chicago Center
06:24PM 42.4542 -88.4511 126° Southeast 273 314 24,900  Level Chicago Center
06:25PM 42.4089 -88.3692 127° Southeast 271 312 24,900  Level Chicago Center
06:26PM 42.3561 -88.2728 127° Southeast 272 313 24,900  Level Chicago Center
06:27PM 42.3153 -88.1978 126° Southeast 271 312 24,900  Level Chicago Center
06:28PM 42.2750 -88.1117 122° Southeast 271 312 24,900  Level Chicago Center
06:29PM 42.2286 -88.0078 121° Southeast 270 311 24,900  Level Chicago Center
06:30PM 42.1883 -87.9225 122° Southeast 270 311 24,900  Level Chicago Center
06:31PM 42.1492 -87.8367 122° Southeast 270 311 24,900  Level Chicago Center
06:32PM 42.1097 -87.7522 122° Southeast 267 307 24,900  Level Chicago Center
06:33PM 42.0708 -87.6664 121° Southeast 269 310 24,900  Level Chicago Center
06:34PM 42.0308 -87.5808 122° Southeast 270 311 24,900  Level Chicago Center
06:35PM 41.9825 -87.4772 122° Southeast 273 314 24,900  Level Chicago Center
06:36PM 41.9428 -87.3911 122° Southeast 273 314 24,900  Level Chicago Center
06:37PM 41.9028 -87.3056 122° Southeast 271 312 24,900  Level Chicago Center
06:38PM 41.8625 -87.2200 122° Southeast 272 313 24,900  Level Chicago Center
06:39PM 41.8217 -87.1344 123° Southeast 273 314 24,900  Level Chicago Center
06:40PM 41.7733 -87.0333 123° Southeast 270 311 24,900  Level Chicago Center
06:41PM 41.7325 -86.9478 123° Southeast 273 314 24,900  Level Chicago Center
06:42PM 41.6922 -86.8622 122° Southeast 273 314 24,900  Level Chicago Center
06:43PM 41.6517 -86.7767 122° Southeast 272 313 24,900 -180 Level Chicago Center
06:44PM 41.6061 -86.6808 122° Southeast 278 320 24,600 -480 Descending Chicago Center
06:45PM 41.5611 -86.5889 123° Southeast 292 336 23,900 -720 Descending Chicago Center
06:46PM 41.5167 -86.4972 123° Southeast 296 341 23,200 -720 Descending Chicago Center
06:47PM 41.4736 -86.4061 122° Southeast 293 337 22,500 -720 Descending Chicago Center
06:48PM 41.4303 -86.3183 123° Southeast 286 329 21,800 -780 Descending Chicago Center
06:49PM 41.3803 -86.2153 123° Southeast 278 320 21,000 -420 Descending Chicago Center
06:51PM 41.3406 -86.1342 123° Southeast 264 304 21,000 -60 Level Chicago Center
06:52PM 41.3019 -86.0525 122° Southeast 261 300 20,900  Descending Chicago Center
06:53PM 41.2603 -85.9697 124° Southeast 269 310 21,000  Climbing Chicago Center
06:54PM 41.2200 -85.8869 123° Southeast 269 310 20,900  Descending Chicago Center
06:55PM 41.1706 -85.7872 123° Southeast 271 312 21,000  Climbing Chicago Center
06:56PM 41.1300 -85.7036 123° Southeast 271 312 20,900  Descending Chicago Center
06:57PM 41.0900 -85.6222 123° Southeast 268 308 21,000  Climbing Chicago Center
06:58PM 41.0492 -85.5381 123° Southeast 272 313 20,900 -60 Descending Chicago Center
06:59PM 40.9997 -85.4414 124° Southeast 268 308 20,900 -240 Level Chicago Center
07:00PM 40.9589 -85.3583 123° Southeast 270 311 20,400 -720 Descending Chicago Center
07:01PM 40.9142 -85.2683 123° Southeast 288 331 19,500 -900 Descending Chicago Center
07:02PM 40.8692 -85.1778 123° Southeast 296 341 18,600 -900 Descending Chicago Center
07:03PM 40.8250 -85.0900 124° Southeast 290 334 17,700 -780 Descending Chicago Center
07:04PM 40.7739 -84.9878 123° Southeast 282 325 17,000 -720 Descending Chicago Center
07:05PM 40.7297 -84.9028 124° Southeast 282 325 16,200 -720 Descending Chicago Center
07:06PM 40.7092 -84.8617 123° Southeast 277 319 15,900 -660 Descending Indianapolis Center
07:07PM 40.6661 -84.7756 123° Southeast 279 321 15,200 -540 Descending Indianapolis Center
07:08PM 40.6239 -84.6931 124° Southeast 273 314 14,900 -180 Descending Indianapolis Center
07:09PM 40.5689 -84.5875 124° Southeast 257 296 14,900 -360 Level Indianapolis Center
07:10PM 40.5347 -84.5178 123° Southeast 266 306 14,200 -780 Descending Indianapolis Center
07:11PM 40.4917 -84.4344 124° Southeast 271 312 13,500 -720 Descending Indianapolis Center
07:12PM 40.4472 -84.3500 125° Southeast 278 320 12,800 -720 Descending Indianapolis Center
07:13PM 40.4033 -84.2653 124° Southeast 279 321 12,100 -720 Descending Indianapolis Center
07:14PM 40.3528 -84.1711 125° Southeast 279 321 11,400 -720 Descending Indianapolis Center
07:15PM 40.2928 -84.1056 140° Southeast 265 305 10,600 -720 Descending Indianapolis Center
07:16PM 40.2267 -84.1214 190° South 258 297 10,000 -360 Descending Indianapolis Center
07:17PM 40.1553 -84.1331 187° South 255 293 9,900 -420 Descending Indianapolis Center
07:18PM 40.0931 -84.1422 186° South 254 292 9,200 -900 Descending Indianapolis Center
07:19PM 40.0292 -84.1556 189° South 251 289 8,400 -840 Descending Indianapolis Center
07:20PM 39.9633 -84.1658 187° South 213 245 7,600 -780 Descending Indianapolis Center
07:21PM 39.8981 -84.1758 187° South 213 245 6,600 -840 Descending Indianapolis Center
07:22PM 39.8553 -84.1814 186° South 204 235 6,000 -840 Descending Indianapolis Center
07:23PM 39.7936 -84.1922 188° South 191 220 5,200 -720 Descending Indianapolis Center
07:25PM 39.7012 -84.1831 189° South  Level FlightAware Approximate
07:32PM 39.5833 -84.2167 180° South  Level FlightAware Approximate
07:33PM 39.5890 -84.2249 180° South  Level Estimated